Time;durP1;ratioP1;P1;durP2;ratioP2;P2;SDS_P1;SDS_P2;PMS_P1;PMS_P2;Temp;Humidity;BMP_temperature;BMP_pressure;BME280_temperature;BME280_humidity;BME280_pressure;Samples;Min_cycle;Max_cycle;Signal;HPM_P1;HPM_P2
2024/04/24 00:02:19;;;;;;;4.67;4.07;;;3.70;99.90;;;;;;5435808;26;20620;-61
2024/04/24 00:04:47;;;;;;;4.93;3.77;;;3.70;99.90;;;;;;5433146;26;20573;-61
2024/04/24 00:07:16;;;;;;;5.70;4.07;;;3.70;99.90;;;;;;5430239;26;20265;-61
2024/04/24 00:09:47;;;;;;;6.80;4.30;;;3.60;99.90;;;;;;5432743;26;20334;-61
2024/04/24 00:12:16;;;;;;;4.90;3.80;;;3.60;99.90;;;;;;5439548;26;20268;-61
2024/04/24 00:14:44;;;;;;;5.87;4.27;;;3.50;99.90;;;;;;5443446;26;20230;-61
2024/04/24 00:17:12;;;;;;;5.93;4.40;;;3.40;99.90;;;;;;5440017;26;20692;-61
2024/04/24 00:19:41;;;;;;;6.13;4.33;;;3.40;99.90;;;;;;5430998;26;20647;-61
2024/04/24 00:22:09;;;;;;;5.73;4.27;;;3.40;99.90;;;;;;5431012;26;20285;-61
2024/04/24 00:24:37;;;;;;;5.20;4.03;;;3.40;99.90;;;;;;5434319;26;20230;-61
2024/04/24 00:27:09;;;;;;;5.47;4.27;;;3.40;99.90;;;;;;5439769;26;20271;-61
2024/04/24 00:29:37;;;;;;;5.80;4.80;;;3.30;99.90;;;;;;5439250;26;20769;-61
2024/04/24 00:32:07;;;;;;;4.23;3.83;;;3.30;99.90;;;;;;5433687;26;20231;-61
2024/04/24 00:34:35;;;;;;;5.43;4.27;;;3.20;99.90;;;;;;5434071;26;20266;-61
2024/04/24 00:37:04;;;;;;;5.57;4.17;;;3.10;99.90;;;;;;5440587;26;20272;-61
2024/04/24 00:39:32;;;;;;;5.07;4.23;;;3.10;99.90;;;;;;5445444;26;20261;-61
2024/04/24 00:42:00;;;;;;;5.67;4.37;;;3.00;99.90;;;;;;5446839;26;20235;-62
2024/04/24 00:44:31;;;;;;;5.60;4.37;;;3.00;99.90;;;;;;5446906;26;20289;-61
2024/04/24 00:47:00;;;;;;;9.10;4.87;;;3.00;99.90;;;;;;5452737;26;20249;-62
2024/04/24 00:49:26;;;;;;;6.63;4.47;;;3.00;99.90;;;;;;5453658;26;20230;-61
2024/04/24 00:51:56;;;;;;;5.90;4.37;;;3.00;99.90;;;;;;5449468;26;20238;-62
2024/04/24 00:54:25;;;;;;;4.50;2.93;;;2.90;99.90;;;;;;5446711;26;20282;-61
2024/04/24 00:56:54;;;;;;;5.37;3.73;;;3.00;99.90;;;;;;5450560;26;20242;-62
2024/04/24 00:59:22;;;;;;;5.47;4.20;;;3.00;99.90;;;;;;5439687;26;20231;-62
2024/04/24 01:01:53;;;;;;;5.17;4.17;;;3.00;99.90;;;;;;5449265;26;20235;-61
2024/04/24 01:04:21;;;;;;;6.63;4.27;;;3.00;99.90;;;;;;5454655;26;20496;-61
2024/04/24 01:06:50;;;;;;;4.10;3.67;;;2.90;99.90;;;;;;5450336;26;20230;-61
2024/04/24 01:09:18;;;;;;;6.23;4.00;;;2.80;99.90;;;;;;5447526;26;20286;-62
2024/04/24 01:11:46;;;;;;;5.47;4.20;;;2.80;99.90;;;;;;5449267;26;20285;-62
2024/04/24 01:14:14;;;;;;;4.97;3.83;;;2.80;99.90;;;;;;5453823;26;20229;-61
2024/04/24 01:16:44;;;;;;;4.53;4.10;;;2.80;99.90;;;;;;5452923;26;20260;-61
2024/04/24 01:19:30;;;;;;;4.33;3.93;;;2.70;99.90;;;;;;5443562;26;20303;-62
2024/04/24 01:22:10;;;;;;;7.07;3.80;;;2.70;99.90;;;;;;5439216;26;20559;-62
2024/04/24 01:24:43;;;;;;;5.37;4.10;;;2.60;99.90;;;;;;5439852;26;20229;-62
2024/04/24 01:27:14;;;;;;;6.23;3.90;;;2.50;99.90;;;;;;5435171;26;20227;-61
2024/04/24 01:29:42;;;;;;;5.97;4.07;;;2.50;99.90;;;;;;5435343;26;20612;-61
2024/04/24 01:32:10;;;;;;;5.60;3.87;;;2.50;99.90;;;;;;5438990;26;20234;-61
2024/04/24 01:34:39;;;;;;;4.60;4.03;;;2.50;99.90;;;;;;5438929;26;20229;-61
2024/04/24 01:37:07;;;;;;;4.80;3.93;;;2.60;99.90;;;;;;5433322;26;20756;-61
2024/04/24 01:39:35;;;;;;;5.30;4.43;;;2.50;99.90;;;;;;5433707;26;20235;-61
2024/04/24 01:42:04;;;;;;;5.40;4.43;;;2.40;99.90;;;;;;5433257;26;20235;-61
2024/04/24 01:44:35;;;;;;;4.43;3.73;;;2.40;99.90;;;;;;5433116;26;20352;-61
2024/04/24 01:47:03;;;;;;;5.83;4.57;;;2.40;99.90;;;;;;5433533;26;20273;-61
2024/04/24 01:49:31;;;;;;;4.53;4.10;;;2.40;99.90;;;;;;5433384;26;20235;-61
2024/04/24 01:52:00;;;;;;;4.97;4.43;;;2.40;99.90;;;;;;5438340;26;20266;-61
2024/04/24 01:54:28;;;;;;;4.77;4.10;;;2.50;99.90;;;;;;5439627;26;20806;-61
2024/04/24 01:56:56;;;;;;;5.47;4.00;;;2.60;99.90;;;;;;5434776;26;20225;-61
2024/04/24 01:59:24;;;;;;;6.23;4.40;;;2.70;99.90;;;;;;5433318;26;20238;-62
2024/04/24 02:01:55;;;;;;;5.00;4.40;;;2.80;99.90;;;;;;5432192;26;20273;-61
2024/04/24 02:04:24;;;;;;;4.57;4.00;;;2.80;99.90;;;;;;5433239;26;20231;-61
2024/04/24 02:06:52;;;;;;;5.83;4.20;;;2.90;99.90;;;;;;5436047;26;20235;-62
2024/04/24 02:09:20;;;;;;;5.10;4.10;;;2.90;99.90;;;;;;5438888;26;20234;-61
2024/04/24 02:11:49;;;;;;;5.03;3.77;;;3.00;99.90;;;;;;5436147;26;20234;-61
2024/04/24 02:14:17;;;;;;;5.37;4.07;;;3.10;99.90;;;;;;5432969;26;20270;-61
2024/04/24 02:16:45;;;;;;;4.60;3.80;;;3.20;99.90;;;;;;5434232;26;20231;-61
2024/04/24 02:19:16;;;;;;;4.63;4.00;;;3.20;99.90;;;;;;5438736;26;20570;-61
2024/04/24 02:21:44;;;;;;;5.67;4.20;;;3.30;99.90;;;;;;5436707;26;20601;-62
2024/04/24 02:25:33;;;;;;;5.97;3.97;;;3.30;99.90;;;;;;5432844;26;20276;-61
2024/04/24 02:26:59;;;;;;;4.40;3.63;;;3.30;99.90;;;;;;5438210;26;20277;-61
2024/04/24 02:29:27;;;;;;;4.07;3.67;;;3.40;99.90;;;;;;5439195;26;20234;-61
2024/04/24 02:31:55;;;;;;;5.33;3.80;;;3.40;99.90;;;;;;5434380;26;20234;-61
2024/04/24 02:34:26;;;;;;;5.57;4.07;;;3.40;99.90;;;;;;5432464;26;20235;-61
2024/04/24 02:36:55;;;;;;;6.57;3.73;;;3.40;99.90;;;;;;5436485;26;20262;-61
2024/04/24 02:39:23;;;;;;;5.03;3.80;;;3.30;99.90;;;;;;5439245;26;20735;-61
2024/04/24 02:41:51;;;;;;;4.67;3.83;;;3.20;99.90;;;;;;5435445;26;20284;-61
2024/04/24 02:44:20;;;;;;;7.20;4.20;;;3.10;99.90;;;;;;5431841;26;20231;-61
2024/04/24 02:46:48;;;;;;;5.30;3.50;;;2.90;99.90;;;;;;5434950;26;20265;-61
2024/04/24 02:49:17;;;;;;;5.67;4.20;;;2.70;99.90;;;;;;5438862;26;20272;-61
2024/04/24 02:51:47;;;;;;;4.30;3.57;;;2.70;99.90;;;;;;5437335;26;20272;-62
2024/04/24 02:54:16;;;;;;;4.83;3.90;;;2.60;99.90;;;;;;5432685;26;20731;-61
2024/04/24 02:56:44;;;;;;;6.63;3.70;;;2.60;99.90;;;;;;5434037;26;20231;-61
2024/04/24 02:59:13;;;;;;;7.00;3.67;;;2.50;99.90;;;;;;5439428;26;20233;-61
2024/04/24 03:01:41;;;;;;;5.37;3.73;;;2.40;99.90;;;;;;5423956;26;20269;-61
2024/04/24 03:04:09;;;;;;;5.67;4.03;;;2.20;99.90;;;;;;5439444;26;20316;-61
2024/04/24 03:06:43;;;;;;;4.67;4.20;;;2.20;99.90;;;;;;5439315;26;20316;-61
2024/04/24 03:09:14;;;;;;;4.47;3.70;;;2.10;99.90;;;;;;5433163;26;20227;-61
2024/04/24 03:11:43;;;;;;;5.27;3.77;;;2.10;99.90;;;;;;5439666;26;20287;-62
2024/04/24 03:14:11;;;;;;;6.77;4.07;;;2.10;99.90;;;;;;5451194;26;20227;-62
2024/04/24 03:16:40;;;;;;;5.33;4.30;;;2.10;99.90;;;;;;5451135;26;20265;-61
2024/04/24 03:19:08;;;;;;;5.07;3.80;;;2.20;99.90;;;;;;5457884;26;20604;-61
2024/04/24 03:21:36;;;;;;;4.27;3.73;;;2.20;99.90;;;;;;5457226;26;20285;-61
2024/04/24 03:24:05;;;;;;;5.07;4.13;;;2.20;99.90;;;;;;5457784;26;20268;-61
2024/04/24 03:26:36;;;;;;;7.27;4.30;;;2.20;99.90;;;;;;5445027;26;20230;-61
2024/04/24 03:29:04;;;;;;;6.33;4.83;;;2.20;99.90;;;;;;5423660;26;20234;-62
2024/04/24 03:31:35;;;;;;;7.43;4.43;;;2.20;99.90;;;;;;5437559;26;20575;-61
2024/04/24 03:34:03;;;;;;;6.50;4.10;;;2.10;99.90;;;;;;5432200;26;20274;-61
2024/04/24 03:36:32;;;;;;;8.27;4.23;;;2.00;99.90;;;;;;5433174;26;20280;-62
2024/04/24 03:39:00;;;;;;;4.73;3.97;;;2.00;99.90;;;;;;5434941;26;20230;-61
2024/04/24 03:41:28;;;;;;;5.63;3.87;;;2.00;99.90;;;;;;5449971;26;20235;-61
2024/04/24 03:43:59;;;;;;;4.83;3.90;;;1.90;99.90;;;;;;5453455;26;20231;-61
2024/04/24 03:46:27;;;;;;;7.87;4.50;;;1.90;99.90;;;;;;5445224;26;20280;-61
2024/04/24 03:48:57;;;;;;;6.20;4.40;;;1.90;99.90;;;;;;5433825;26;20288;-61
2024/04/24 03:51:25;;;;;;;7.73;5.00;;;1.90;99.90;;;;;;5431032;26;20230;-62
2024/04/24 03:53:54;;;;;;;7.40;4.60;;;1.80;99.90;;;;;;5434077;26;20231;-61
2024/04/24 03:56:22;;;;;;;7.67;5.00;;;1.80;99.90;;;;;;5437344;26;20234;-61
2024/04/24 03:58:50;;;;;;;8.20;5.20;;;1.90;99.90;;;;;;5438400;26;20272;-61
2024/04/24 04:01:25;;;;;;;6.57;4.80;;;1.90;99.90;;;;;;5434934;26;20280;-61
2024/04/24 04:03:53;;;;;;;5.83;4.30;;;1.90;99.90;;;;;;5435206;26;20280;-61
2024/04/24 04:06:21;;;;;;;6.77;4.53;;;1.90;99.90;;;;;;5434871;26;20294;-62
2024/04/24 04:08:50;;;;;;;6.50;3.87;;;2.00;99.90;;;;;;5436715;26;20234;-61
2024/04/24 04:11:18;;;;;;;6.40;4.50;;;2.10;99.90;;;;;;5440480;26;20275;-61
2024/04/24 04:13:47;;;;;;;7.93;4.27;;;2.20;99.90;;;;;;5440529;26;20276;-61
2024/04/24 04:16:15;;;;;;;5.13;4.37;;;2.30;99.90;;;;;;5440865;26;20268;-61
2024/04/24 04:18:46;;;;;;;6.27;4.50;;;2.50;99.90;;;;;;5440772;26;20593;-61
2024/04/24 04:21:14;;;;;;;5.80;4.03;;;2.70;99.90;;;;;;5440173;26;20302;-61
2024/04/24 04:23:43;;;;;;;6.83;4.33;;;2.80;99.90;;;;;;5440501;26;20264;-62
2024/04/24 04:26:11;;;;;;;5.93;4.30;;;3.00;99.90;;;;;;5434224;26;20231;-61
2024/04/24 04:28:39;;;;;;;5.50;4.13;;;3.00;99.90;;;;;;5434250;26;20234;-61
2024/04/24 04:31:08;;;;;;;6.57;4.67;;;3.20;99.90;;;;;;5433680;26;20342;-61
2024/04/24 04:33:36;;;;;;;6.20;4.03;;;3.20;99.90;;;;;;5434279;26;20239;-61
2024/04/24 04:36:08;;;;;;;10.30;4.77;;;3.30;99.90;;;;;;5439606;26;20234;-61
2024/04/24 04:38:36;;;;;;;8.63;4.90;;;3.30;99.90;;;;;;5440511;26;20242;-61
2024/04/24 04:41:05;;;;;;;7.63;4.40;;;3.30;99.90;;;;;;5434643;26;20261;-61
2024/04/24 04:43:33;;;;;;;9.30;4.87;;;3.30;99.90;;;;;;5434352;26;20274;-61
2024/04/24 04:46:02;;;;;;;8.97;4.73;;;3.30;99.90;;;;;;5439030;26;20667;-61
2024/04/24 04:48:30;;;;;;;8.20;5.20;;;3.30;99.90;;;;;;5440972;26;20233;-61
2024/04/24 04:50:58;;;;;;;7.80;5.53;;;3.10;99.90;;;;;;5436330;26;20234;-61
2024/04/24 04:53:29;;;;;;;5.97;4.80;;;3.00;99.90;;;;;;5434116;26;20239;-62
2024/04/24 04:55:57;;;;;;;6.67;4.77;;;2.80;99.90;;;;;;5438003;26;20238;-61
2024/04/24 04:58:26;;;;;;;6.93;4.87;;;2.70;99.90;;;;;;5430510;26;20231;-62
2024/04/24 05:00:55;;;;;;;8.57;4.77;;;2.70;99.90;;;;;;5436618;26;20231;-63
2024/04/24 05:03:24;;;;;;;7.67;4.93;;;2.70;99.90;;;;;;5430917;26;20239;-62
2024/04/24 05:05:52;;;;;;;6.27;5.00;;;2.80;99.90;;;;;;5436212;26;20625;-61
2024/04/24 05:08:21;;;;;;;9.67;5.50;;;3.00;99.90;;;;;;5439907;26;20363;-60
2024/04/24 05:10:52;;;;;;;7.70;5.27;;;3.20;99.90;;;;;;5438820;26;20260;-60
2024/04/24 05:13:20;;;;;;;8.10;5.20;;;3.30;99.90;;;;;;5434269;26;20335;-61
2024/04/24 05:15:49;;;;;;;8.47;5.63;;;3.60;99.90;;;;;;5435034;26;20580;-58
2024/04/24 05:18:18;;;;;;;6.83;4.77;;;3.70;99.90;;;;;;5439518;26;20230;-58
2024/04/24 05:20:46;;;;;;;6.33;5.27;;;4.00;99.90;;;;;;5438358;26;20230;-58
2024/04/24 05:23:15;;;;;;;10.00;5.37;;;4.30;99.90;;;;;;5432302;26;20327;-59
2024/04/24 05:25:51;;;;;;;6.90;4.23;;;4.60;99.90;;;;;;5431989;26;20576;-59
2024/04/24 05:31:07;;;;;;;8.10;5.47;;;5.00;99.90;;;;;;5439632;26;20276;-59
2024/04/24 05:33:35;;;;;;;6.70;4.70;;;5.20;99.90;;;;;;5437953;26;20234;-58
2024/04/24 05:36:04;;;;;;;6.40;4.93;;;5.40;99.90;;;;;;5433067;26;20680;-59
2024/04/24 05:38:32;;;;;;;7.50;5.43;;;5.50;99.90;;;;;;5431955;26;20231;-59
2024/04/24 05:41:01;;;;;;;6.70;5.17;;;5.40;99.90;;;;;;5435435;26;20231;-58
2024/04/24 05:43:31;;;;;;;9.53;5.03;;;5.30;99.90;;;;;;5437904;26;20238;-58
2024/04/24 05:46:00;;;;;;;5.30;4.50;;;5.60;99.90;;;;;;5433775;26;20229;-58
2024/04/24 05:48:28;;;;;;;6.03;4.30;;;6.70;99.90;;;;;;5431510;26;20230;-59
2024/04/24 05:50:56;;;;;;;6.50;5.13;;;8.40;99.90;;;;;;5433893;26;20261;-59
2024/04/24 05:53:25;;;;;;;7.10;4.47;;;9.40;99.90;;;;;;5437619;26;20234;-58
2024/04/24 05:55:50;;;;;;;7.57;4.37;;;9.80;99.90;;;;;;5435521;26;20230;-59
2024/04/24 05:58:19;;;;;;;7.67;6.87;;;10.40;99.90;;;;;;5431499;26;20782;-58
2024/04/24 06:00:50;;;;;;;8.30;4.40;;;10.90;99.90;;;;;;5431263;26;20235;-59
2024/04/24 06:03:18;;;;;;;18.40;15.80;;;11.50;99.90;;;;;;5437671;26;20829;-59
2024/04/24 06:05:46;;;;;;;6.87;4.37;;;12.70;97.00;;;;;;5437135;26;20230;-59
2024/04/24 06:08:15;;;;;;;4.80;3.50;;;13.60;95.80;;;;;;5431566;26;20292;-56
2024/04/24 06:10:43;;;;;;;7.43;4.67;;;14.20;93.80;;;;;;5431065;26;20841;-57
2024/04/24 06:13:11;;;;;;;8.83;4.70;;;15.20;92.20;;;;;;5430828;26;20234;-57
2024/04/24 06:15:40;;;;;;;12.30;5.00;;;16.40;91.50;;;;;;5430623;26;20743;-57
2024/04/24 06:18:11;;;;;;;9.57;5.57;;;17.40;85.90;;;;;;5435480;26;20272;-57
2024/04/24 06:20:39;;;;;;;7.85;4.90;;;17.10;84.00;;;;;;5435709;26;20230;-56
2024/04/24 06:23:07;;;;;;;7.22;4.68;;;16.10;84.30;;;;;;5431109;26;20315;-57
2024/04/24 06:25:36;;;;;;;6.85;5.05;;;15.70;85.40;;;;;;5430739;26;20235;-57
2024/04/24 06:28:04;;;;;;;6.35;4.68;;;15.30;87.90;;;;;;5435034;26;20274;-57
2024/04/24 06:30:32;;;;;;;12.77;4.55;;;15.40;86.90;;;;;;5436892;26;20230;-57
2024/04/24 06:33:04;;;;;;;7.07;4.60;;;16.30;86.80;;;;;;5432900;26;20230;-57
2024/04/24 06:35:36;;;;;;;7.78;4.10;;;18.00;81.90;;;;;;5431188;26;20231;-58
2024/04/24 06:38:05;;;;;;;11.25;4.32;;;19.50;74.70;;;;;;5435974;26;20231;-58
2024/04/24 06:40:33;;;;;;;5.28;3.78;;;20.60;73.90;;;;;;5438189;26;20347;-58
2024/04/24 06:43:02;;;;;;;5.10;3.90;;;21.70;69.00;;;;;;5433883;26;20233;-58
2024/04/24 06:45:30;;;;;;;3.63;3.30;;;21.40;65.90;;;;;;5431420;26;20235;-58
2024/04/24 06:47:59;;;;;;;4.43;3.30;;;21.40;65.20;;;;;;5434513;26;20720;-57
2024/04/24 06:50:27;;;;;;;3.50;3.20;;;22.20;62.60;;;;;;5438321;26;20229;-57
2024/04/24 06:52:58;;;;;;;4.70;3.45;;;22.90;60.70;;;;;;5434786;26;20237;-58
2024/04/24 06:55:26;;;;;;;3.92;3.47;;;24.10;59.70;;;;;;5431255;26;20693;-58
2024/04/24 06:57:54;;;;;;;6.25;4.95;;;25.10;56.50;;;;;;5432902;26;20231;-58
2024/04/24 07:00:24;;;;;;;4.97;3.40;;;25.50;55.00;;;;;;5437240;26;20310;-58
2024/04/24 07:02:52;;;;;;;4.60;3.63;;;26.30;52.70;;;;;;5435523;26;20237;-58
2024/04/24 07:05:21;;;;;;;6.55;4.07;;;25.90;51.70;;;;;;5430280;26;20230;-57
2024/04/24 07:07:49;;;;;;;4.95;3.42;;;24.70;52.10;;;;;;5430681;26;20235;-57
2024/04/24 07:10:20;;;;;;;5.32;4.13;;;23.10;53.60;;;;;;5436494;26;20715;-57
2024/04/24 07:12:48;;;;;;;5.75;3.78;;;21.60;56.20;;;;;;5435382;26;20343;-57
2024/04/24 07:15:16;;;;;;;5.18;4.05;;;20.30;57.90;;;;;;5429981;26;20582;-57
2024/04/24 07:17:46;;;;;;;6.50;4.35;;;19.10;59.80;;;;;;5430443;26;20870;-57
2024/04/24 07:20:14;;;;;;;7.15;4.18;;;18.10;61.60;;;;;;5430220;26;20286;-57
2024/04/24 07:22:42;;;;;;;9.77;4.78;;;17.20;65.00;;;;;;5429866;26;20365;-57
2024/04/24 07:25:10;;;;;;;5.53;4.88;;;16.00;67.70;;;;;;5435398;26;20268;-57
2024/04/24 07:27:41;;;;;;;5.72;5.18;;;14.90;71.60;;;;;;5435653;26;20230;-57
2024/04/24 07:30:10;;;;;;;7.73;4.93;;;14.00;74.90;;;;;;5430214;26;20227;-57
2024/04/24 07:32:39;;;;;;;8.37;5.00;;;13.40;77.20;;;;;;5429066;26;20400;-57
2024/04/24 07:35:08;;;;;;;8.23;4.97;;;13.10;79.40;;;;;;5434222;26;20265;-57
2024/04/24 07:37:36;;;;;;;8.10;5.10;;;12.70;82.80;;;;;;5435419;26;20230;-57
2024/04/24 07:40:05;;;;;;;6.60;5.00;;;12.50;85.80;;;;;;5431437;26;20271;-57
2024/04/24 07:42:33;;;;;;;7.93;5.17;;;12.60;86.80;;;;;;5429198;26;20235;-57
2024/04/24 07:45:06;;;;;;;7.23;5.30;;;12.50;87.70;;;;;;5433207;26;20243;-57
2024/04/24 07:47:34;;;;;;;6.63;5.47;;;12.40;88.30;;;;;;5436121;26;20225;-57
2024/04/24 07:50:03;;;;;;;5.70;4.87;;;12.20;88.40;;;;;;5432287;26;20769;-57
2024/04/24 07:52:31;;;;;;;6.83;5.53;;;12.20;89.40;;;;;;5429163;26;20285;-57
2024/04/24 07:54:59;;;;;;;8.30;5.37;;;12.00;90.10;;;;;;5432186;26;20235;-57
2024/04/24 07:57:28;;;;;;;7.67;5.60;;;11.90;90.40;;;;;;5435744;26;20230;-57
2024/04/24 07:59:56;;;;;;;6.30;5.40;;;11.60;90.30;;;;;;5433799;26;20230;-59
2024/04/24 08:02:27;;;;;;;6.07;5.30;;;11.30;91.00;;;;;;5429145;26;20754;-59
2024/04/24 08:04:55;;;;;;;6.53;4.93;;;10.90;92.00;;;;;;5430982;26;20234;-59
2024/04/24 08:07:23;;;;;;;7.60;5.70;;;10.60;93.20;;;;;;5435560;26;20229;-59
2024/04/24 08:09:52;;;;;;;8.73;5.60;;;10.40;94.20;;;;;;5434643;26;20599;-59
2024/04/24 08:12:20;;;;;;;7.97;5.27;;;10.40;95.90;;;;;;5429088;26;20622;-59
2024/04/24 08:14:48;;;;;;;7.20;5.27;;;10.60;96.00;;;;;;5429288;26;20235;-59
2024/04/24 08:17:17;;;;;;;9.33;5.77;;;10.60;95.20;;;;;;5429159;26;20270;-59
2024/04/24 08:19:48;;;;;;;6.47;5.27;;;10.80;96.00;;;;;;5429575;26;20227;-61
2024/04/24 08:22:18;;;;;;;8.67;5.93;;;10.70;96.10;;;;;;5429412;26;20235;-59
2024/04/24 08:24:46;;;;;;;6.33;5.37;;;10.70;94.80;;;;;;5429214;26;20330;-60
2024/04/24 08:27:15;;;;;;;6.03;5.43;;;10.90;95.60;;;;;;5429336;26;20743;-59
2024/04/24 08:29:43;;;;;;;7.27;5.23;;;11.00;96.20;;;;;;5429549;26;20238;-59
2024/04/24 08:32:11;;;;;;;6.20;5.60;;;11.30;96.50;;;;;;5433781;26;20233;-59
2024/04/24 08:34:40;;;;;;;8.60;5.40;;;11.40;96.40;;;;;;5435076;26;20230;-59
2024/04/24 08:37:11;;;;;;;8.53;5.90;;;11.50;95.90;;;;;;5430447;26;20230;-59
2024/04/24 08:39:39;;;;;;;12.43;5.77;;;11.60;94.70;;;;;;5428930;26;20235;-60
2024/04/24 08:42:08;;;;;;;7.67;6.87;;;11.70;94.20;;;;;;5432286;26;20265;-59
2024/04/24 08:44:38;;;;;;;9.23;5.90;;;11.80;93.70;;;;;;5438609;26;20230;-57
2024/04/24 08:47:07;;;;;;;6.73;6.03;;;11.90;93.70;;;;;;5434536;26;20623;-59
2024/04/24 08:49:37;;;;;;;6.80;5.70;;;12.00;94.00;;;;;;5432623;26;20227;-56
2024/04/24 08:52:08;;;;;;;7.93;5.70;;;11.90;94.00;;;;;;5435764;26;20277;-59
2024/04/24 08:54:41;;;;;;;6.20;5.60;;;11.90;93.50;;;;;;5438828;26;20711;-58
2024/04/24 08:57:12;;;;;;;7.73;5.67;;;11.90;93.20;;;;;;5433667;26;20230;-58
2024/04/24 08:59:44;;;;;;;6.23;5.53;;;11.80;92.80;;;;;;5432524;26;20235;-60
2024/04/24 09:02:13;;;;;;;7.30;5.63;;;11.80;92.80;;;;;;5437292;26;20589;-61
2024/04/24 09:04:43;;;;;;;6.03;5.43;;;11.80;92.70;;;;;;5438979;26;20358;-64
2024/04/24 09:07:13;;;;;;;6.83;6.13;;;11.70;92.50;;;;;;5433892;26;20243;-63
2024/04/24 09:09:45;;;;;;;5.90;5.30;;;11.70;92.60;;;;;;5432460;26;20276;-61
2024/04/24 09:12:13;;;;;;;7.43;5.70;;;11.70;93.20;;;;;;5437271;26;20268;-59
2024/04/24 09:14:44;;;;;;;6.70;5.50;;;11.80;93.00;;;;;;5438342;26;20268;-59
2024/04/24 09:17:12;;;;;;;7.67;5.73;;;11.80;92.70;;;;;;5433022;26;20247;-60
2024/04/24 09:19:42;;;;;;;9.30;5.80;;;12.00;93.00;;;;;;5432110;26;20231;-59
2024/04/24 09:22:10;;;;;;;8.80;5.80;;;12.20;92.70;;;;;;5435989;26;20235;-64
2024/04/24 09:24:39;;;;;;;6.63;5.77;;;12.20;92.10;;;;;;5438310;26;20719;-60
2024/04/24 09:27:10;;;;;;;6.57;5.23;;;12.10;92.00;;;;;;5434316;26;20276;-60
2024/04/24 09:29:38;;;;;;;7.37;5.80;;;12.20;92.10;;;;;;5432097;26;20345;-60
2024/04/24 09:32:12;;;;;;;6.97;4.93;;;12.20;91.80;;;;;;5435032;26;20579;-60
2024/04/24 09:34:45;;;;;;;7.13;6.17;;;12.20;91.70;;;;;;5437742;26;20229;-61
2024/04/24 09:37:15;;;;;;;7.77;5.90;;;12.20;91.80;;;;;;5432275;26;20327;-61
2024/04/24 09:39:44;;;;;;;7.30;5.73;;;12.30;91.70;;;;;;5431836;26;20621;-61
2024/04/24 09:42:16;;;;;;;5.27;4.77;;;12.20;91.00;;;;;;5436107;26;20254;-60
2024/04/24 09:44:45;;;;;;;5.97;5.37;;;12.00;90.90;;;;;;5437775;26;20272;-61
2024/04/24 09:47:14;;;;;;;7.27;5.77;;;11.90;91.20;;;;;;5431967;26;20756;-61
2024/04/24 09:49:44;;;;;;;8.70;5.37;;;12.00;91.20;;;;;;5431343;26;20277;-61
2024/04/24 09:52:17;;;;;;;8.13;6.73;;;12.00;92.00;;;;;;5435935;26;20246;-61
2024/04/24 09:54:45;;;;;;;8.20;6.70;;;11.80;93.30;;;;;;5437333;26;20246;-60
2024/04/24 09:57:19;;;;;;;7.67;6.83;;;11.10;94.60;;;;;;5432320;26;20238;-61
2024/04/24 09:59:52;;;;;;;12.77;7.30;;;10.50;96.60;;;;;;5431611;26;20231;-64
2024/04/24 10:02:25;;;;;;;8.30;7.13;;;10.40;98.20;;;;;;5430968;26;20282;-59
2024/04/24 10:05:02;;;;;;;7.83;7.03;;;10.30;98.00;;;;;;5439585;26;20268;-64
2024/04/24 10:07:32;;;;;;;8.03;7.23;;;10.40;99.50;;;;;;5427285;26;20331;-62
2024/04/24 10:10:02;;;;;;;8.33;7.40;;;10.60;99.90;;;;;;5432775;26;20724;-61
2024/04/24 10:12:38;;;;;;;9.03;7.20;;;10.70;99.90;;;;;;5436701;26;20279;-61
2024/04/24 10:15:10;;;;;;;10.40;8.87;;;10.50;99.90;;;;;;5433439;26;20230;-62
2024/04/24 10:17:39;;;;;;;9.77;7.50;;;10.40;99.90;;;;;;5430480;26;20235;-60
2024/04/24 10:20:09;;;;;;;8.70;7.80;;;10.00;99.90;;;;;;5434412;26;20274;-60
2024/04/24 10:22:39;;;;;;;11.07;8.33;;;9.80;99.90;;;;;;5436434;26;20234;-61
2024/04/24 10:25:09;;;;;;;8.50;7.60;;;9.70;99.90;;;;;;5433771;26;20233;-60
2024/04/24 10:27:41;;;;;;;8.80;7.90;;;9.80;99.90;;;;;;5430360;26;20231;-60
2024/04/24 10:30:11;;;;;;;9.47;7.20;;;10.10;99.90;;;;;;5434867;26;20274;-60
2024/04/24 10:32:39;;;;;;;8.40;7.60;;;10.20;99.90;;;;;;5436408;26;20242;-60
2024/04/24 10:35:09;;;;;;;10.30;7.70;;;10.30;99.90;;;;;;5433251;26;20230;-60
2024/04/24 10:37:37;;;;;;;9.87;8.70;;;10.50;99.90;;;;;;5430403;26;20261;-60
2024/04/24 10:40:07;;;;;;;9.83;7.43;;;10.40;99.90;;;;;;5433811;26;20264;-60
2024/04/24 10:42:35;;;;;;;8.90;7.80;;;10.40;99.90;;;;;;5436030;26;20711;-60
2024/04/24 10:45:07;;;;;;;9.00;7.30;;;10.20;99.90;;;;;;5434192;26;20264;-62
2024/04/24 10:47:35;;;;;;;8.73;7.70;;;10.20;99.90;;;;;;5430188;26;20759;-62
2024/04/24 10:50:14;;;;;;;10.30;8.17;;;10.10;99.90;;;;;;5432996;26;20273;-62
2024/04/24 10:52:48;;;;;;;8.77;7.87;;;9.90;99.90;;;;;;5436519;26;20241;-62
2024/04/24 10:55:17;;;;;;;8.80;7.80;;;9.70;99.90;;;;;;5431037;26;20273;-63
2024/04/24 10:57:48;;;;;;;8.67;7.40;;;9.50;99.90;;;;;;5430371;26;20276;-63
2024/04/24 11:00:20;;;;;;;12.27;8.20;;;9.40;99.90;;;;;;5435363;26;20742;-63
2024/04/24 11:02:49;;;;;;;8.67;7.77;;;9.40;99.90;;;;;;5436290;26;20233;-64
2024/04/24 11:05:21;;;;;;;9.03;7.77;;;9.40;99.90;;;;;;5430092;26;20266;-64
2024/04/24 11:08:00;;;;;;;8.87;7.97;;;9.30;99.90;;;;;;5430195;26;20270;-64
2024/04/24 11:10:29;;;;;;;9.83;8.70;;;9.00;99.90;;;;;;5429893;26;20230;-63
2024/04/24 11:12:57;;;;;;;9.97;8.80;;;8.80;99.90;;;;;;5430302;26;20289;-62
2024/04/24 11:15:29;;;;;;;10.90;8.60;;;8.70;99.90;;;;;;5436344;26;20234;-61
2024/04/24 11:17:58;;;;;;;10.63;8.87;;;8.60;99.90;;;;;;5435465;26;20230;-62
2024/04/24 11:20:27;;;;;;;10.60;8.03;;;8.70;99.90;;;;;;5429917;26;20277;-61
2024/04/24 11:22:55;;;;;;;9.77;8.77;;;8.90;99.90;;;;;;5429427;26;20234;-61
2024/04/24 11:25:24;;;;;;;8.87;7.53;;;9.30;99.90;;;;;;5436647;26;20273;-65
2024/04/24 11:27:52;;;;;;;9.83;8.07;;;9.30;99.90;;;;;;5436090;26;20230;-67
2024/04/24 11:30:22;;;;;;;16.00;8.20;;;9.40;99.90;;;;;;5421296;26;20229;-66
2024/04/24 11:32:54;;;;;;;8.60;7.63;;;9.60;99.90;;;;;;5435210;26;20246;-64
2024/04/24 11:35:24;;;;;;;8.87;8.00;;;9.70;99.90;;;;;;5429922;26;20335;-62
2024/04/24 11:37:53;;;;;;;10.77;8.07;;;9.80;99.90;;;;;;5429884;26;20331;-62
2024/04/24 11:40:22;;;;;;;8.17;7.33;;;10.00;99.90;;;;;;5429992;26;20231;-63
2024/04/24 11:42:51;;;;;;;9.00;8.10;;;10.10;99.90;;;;;;5429212;26;20247;-64
2024/04/24 11:45:19;;;;;;;10.43;7.53;;;10.20;99.90;;;;;;5435772;26;20230;-65
2024/04/24 11:47:53;;;;;;;8.33;7.53;;;10.30;99.90;;;;;;5421332;26;20278;-63
2024/04/24 11:50:19;;;;;;;8.43;7.63;;;10.40;99.90;;;;;;5428537;26;20334;-63
2024/04/24 11:52:48;;;;;;;9.13;8.00;;;10.60;99.90;;;;;;5412126;26;20243;-61
2024/04/24 11:55:18;;;;;;;8.90;8.00;;;10.70;99.90;;;;;;5434211;26;20283;-59
2024/04/24 11:57:47;;;;;;;9.23;7.60;;;10.70;99.90;;;;;;5432608;26;20233;-59
2024/04/24 12:00:16;;;;;;;8.33;7.43;;;10.90;99.90;;;;;;5420571;26;20565;-61
2024/04/24 12:02:44;;;;;;;8.33;7.50;;;11.20;99.90;;;;;;5434545;26;20286;-62
2024/04/24 12:05:15;;;;;;;8.60;6.77;;;11.40;99.90;;;;;;5431313;26;20229;-62
2024/04/24 12:07:45;;;;;;;7.57;6.57;;;11.70;99.90;;;;;;5425610;26;20230;-63
2024/04/24 12:10:14;;;;;;;8.40;7.50;;;12.10;99.90;;;;;;5419430;26;20285;-61
2024/04/24 12:12:44;;;;;;;10.17;7.53;;;12.50;99.90;;;;;;5437933;26;20750;-61
2024/04/24 12:15:16;;;;;;;8.47;7.20;;;12.80;99.90;;;;;;5428349;26;20251;-61
2024/04/24 12:17:46;;;;;;;7.13;6.43;;;12.90;99.90;;;;;;5414403;26;20243;-62
2024/04/24 12:20:17;;;;;;;8.13;6.27;;;13.20;99.90;;;;;;5421137;26;20274;-62
2024/04/24 12:22:45;;;;;;;7.00;6.30;;;13.40;99.90;;;;;;5426198;26;20234;-60
2024/04/24 12:25:13;;;;;;;7.23;6.47;;;13.80;99.90;;;;;;5433860;26;20231;-63
2024/04/24 12:27:42;;;;;;;9.43;6.37;;;14.10;99.90;;;;;;5435464;26;20268;-62
2024/04/24 12:30:10;;;;;;;7.67;6.30;;;14.40;99.90;;;;;;5452988;26;20261;-60
2024/04/24 12:32:39;;;;;;;6.97;6.37;;;14.60;99.90;;;;;;5452255;26;20229;-60
2024/04/24 12:35:07;;;;;;;8.83;6.87;;;14.70;99.90;;;;;;5452985;26;20272;-60
2024/04/24 12:37:38;;;;;;;7.93;6.37;;;14.90;99.90;;;;;;5453162;26;20234;-59
2024/04/24 12:40:07;;;;;;;6.93;6.30;;;15.10;99.90;;;;;;5452820;26;20234;-60
2024/04/24 12:42:36;;;;;;;5.77;4.93;;;15.40;99.20;;;;;;5452423;26;20233;-59
2024/04/24 12:45:05;;;;;;;7.23;6.03;;;15.50;98.40;;;;;;5452154;26;20759;-60
2024/04/24 12:47:33;;;;;;;8.63;7.53;;;15.30;98.30;;;;;;5453051;26;20230;-60
2024/04/24 12:50:02;;;;;;;6.47;5.83;;;15.10;99.10;;;;;;5437970;26;20235;-60
2024/04/24 12:52:30;;;;;;;6.67;5.97;;;14.60;99.40;;;;;;5429512;26;20289;-58
2024/04/24 12:55:01;;;;;;;7.33;6.63;;;14.20;99.90;;;;;;5416872;26;20799;-58
2024/04/24 12:57:29;;;;;;;6.17;5.60;;;13.80;99.90;;;;;;5431477;26;20273;-58
2024/04/24 12:59:58;;;;;;;6.07;5.53;;;13.50;99.90;;;;;;5431403;26;20763;-57
2024/04/24 13:02:26;;;;;;;6.97;6.27;;;13.30;99.90;;;;;;5416112;26;20273;-58
2024/04/24 13:04:54;;;;;;;10.33;5.57;;;13.50;99.90;;;;;;5431518;26;20235;-59